createdAt,value
2019-02-11T00:02:08.594Z,131.50
2019-02-11T00:04:36.535Z,132.63
2019-02-11T00:07:03.404Z,131.35
2019-02-11T00:09:30.370Z,131.20
2019-02-11T00:11:57.137Z,131.72
2019-02-11T00:14:23.982Z,130.72
2019-02-11T00:16:50.932Z,131.85
2019-02-11T00:19:17.890Z,131.75
2019-02-11T00:21:44.800Z,132.00
2019-02-11T00:24:11.653Z,132.32
2019-02-11T00:26:38.504Z,132.00
2019-02-11T00:29:05.379Z,131.67
2019-02-11T00:31:32.249Z,131.90
2019-02-11T00:33:59.198Z,131.72
2019-02-11T00:36:26.066Z,131.85
2019-02-11T00:38:52.928Z,131.80
2019-02-11T00:41:19.777Z,132.18
2019-02-11T00:43:46.656Z,131.35
2019-02-11T00:46:13.542Z,133.03
2019-02-11T00:48:40.373Z,131.22
2019-02-11T00:51:07.648Z,131.70
2019-02-11T00:53:34.497Z,132.12
2019-02-11T00:56:01.427Z,131.67
2019-02-11T00:58:28.336Z,131.55
2019-02-11T01:00:55.286Z,131.55
2019-02-11T01:03:22.231Z,131.00
2019-02-11T01:05:49.134Z,131.30
2019-02-11T01:08:15.992Z,130.43
2019-02-11T01:10:42.840Z,130.47
2019-02-11T01:13:09.728Z,131.90
2019-02-11T01:15:36.563Z,131.87
2019-02-11T01:18:03.309Z,130.70
2019-02-11T01:20:30.109Z,131.07
2019-02-11T01:22:56.863Z,131.00
2019-02-11T01:25:23.598Z,130.45
2019-02-11T01:27:50.365Z,129.97
2019-02-11T01:30:17.198Z,130.97
2019-02-11T01:32:43.930Z,132.07
2019-02-11T01:35:10.714Z,132.85
2019-02-11T01:37:37.574Z,133.05
2019-02-11T01:40:06.948Z,130.87
2019-02-11T01:42:33.727Z,133.63
2019-02-11T01:45:00.580Z,131.93
2019-02-11T01:47:27.542Z,130.47
2019-02-11T01:49:54.325Z,131.18
2019-02-11T01:52:21.306Z,131.25
2019-02-11T01:54:48.065Z,130.35
2019-02-11T01:57:14.974Z,131.93
2019-02-11T01:59:41.723Z,131.57
2019-02-11T02:02:08.474Z,131.22
2019-02-11T02:04:35.490Z,130.47
2019-02-11T02:07:02.389Z,130.35
2019-02-11T02:09:29.145Z,130.15
2019-02-11T02:11:55.928Z,130.80
2019-02-11T02:14:22.691Z,130.20
2019-02-11T02:16:49.546Z,130.15
2019-02-11T02:19:16.849Z,130.82
2019-02-11T02:21:43.991Z,129.93
2019-02-11T02:24:10.745Z,130.22
2019-02-11T02:26:37.736Z,130.18
2019-02-11T02:29:04.548Z,130.72
2019-02-11T02:31:31.293Z,130.40
2019-02-11T02:33:58.387Z,130.22
2019-02-11T02:36:25.149Z,130.60
2019-02-11T02:38:52.133Z,129.87
2019-02-11T02:41:18.946Z,129.63
2019-02-11T02:43:55.211Z,130.00
2019-02-11T02:46:14.506Z,129.50
2019-02-11T02:48:41.381Z,129.80
2019-02-11T02:51:08.334Z,129.93
2019-02-11T02:53:35.079Z,130.25
2019-02-11T02:56:01.849Z,129.50
2019-02-11T02:58:28.714Z,130.15
2019-02-11T03:00:55.504Z,129.70
2019-02-11T03:03:22.320Z,129.05
2019-02-11T03:05:49.168Z,129.68
2019-02-11T03:08:16.009Z,130.43
2019-02-11T03:10:42.819Z,129.57
2019-02-11T03:13:10.187Z,130.18
2019-02-11T03:15:37.235Z,130.20
2019-02-11T03:18:04.001Z,129.63
2019-02-11T03:20:30.865Z,129.32
2019-02-11T03:22:57.872Z,130.18
2019-02-11T03:25:24.900Z,129.78
2019-02-11T03:27:51.638Z,130.18
2019-02-11T03:30:18.489Z,130.22
2019-02-11T03:32:45.357Z,130.18
2019-02-11T03:35:12.307Z,130.50
2019-02-11T03:37:39.252Z,130.15
2019-02-11T03:40:06.422Z,130.18
2019-02-11T03:42:33.322Z,130.55
2019-02-11T03:45:00.329Z,130.80
2019-02-11T03:47:27.275Z,129.72
2019-02-11T03:49:54.027Z,129.03
2019-02-11T03:52:20.802Z,129.20
2019-02-11T03:54:47.559Z,129.97
2019-02-11T03:57:14.281Z,130.03
2019-02-11T03:59:41.157Z,130.07
2019-02-11T04:02:08.055Z,130.27
2019-02-11T04:04:34.804Z,130.03
2019-02-11T04:07:01.677Z,129.40
2019-02-11T04:09:28.441Z,128.18
2019-02-11T04:11:55.375Z,129.23
2019-02-11T04:14:24.949Z,129.32
2019-02-11T04:16:51.180Z,129.12
2019-02-11T04:19:17.931Z,128.70
2019-02-11T04:21:44.815Z,128.78
2019-02-11T04:24:13.039Z,128.32
2019-02-11T04:26:40.061Z,129.12
2019-02-11T04:29:07.152Z,127.90
2019-02-11T04:31:34.012Z,128.47
2019-02-11T04:34:00.784Z,130.05
2019-02-11T04:36:27.645Z,129.10
2019-02-11T04:38:54.458Z,128.42
2019-02-11T04:41:21.198Z,130.63
2019-02-11T04:43:47.929Z,130.12
2019-02-11T04:46:14.726Z,129.20
2019-02-11T04:48:41.464Z,129.65
2019-02-11T04:51:08.225Z,129.25
2019-02-11T04:53:35.138Z,129.90
2019-02-11T04:56:01.900Z,130.55
2019-02-11T04:58:28.767Z,129.85
2019-02-11T05:00:55.677Z,130.78
2019-02-11T05:03:22.397Z,131.43
2019-02-11T05:05:49.252Z,129.95
2019-02-11T05:08:16.144Z,130.30
2019-02-11T05:10:43.468Z,131.97
2019-02-11T05:13:10.413Z,132.15
2019-02-11T05:15:37.579Z,131.45
2019-02-11T05:18:04.352Z,131.75
2019-02-11T05:20:31.335Z,132.32
2019-02-11T05:22:58.355Z,130.55
2019-02-11T05:25:25.101Z,132.55
2019-02-11T05:27:51.853Z,131.25
2019-02-11T05:30:18.758Z,130.97
2019-02-11T05:32:45.539Z,131.32
2019-02-11T05:35:12.266Z,131.82
2019-02-11T05:37:39.170Z,130.30
2019-02-11T05:40:07.411Z,132.20
2019-02-11T05:42:34.264Z,130.52
2019-02-11T05:45:01.213Z,131.18
2019-02-11T05:47:27.975Z,130.75
2019-02-11T05:49:55.013Z,131.20
2019-02-11T05:52:22.177Z,131.65
2019-02-11T05:54:49.075Z,131.50
2019-02-11T05:57:15.815Z,132.37
2019-02-11T05:59:42.578Z,131.00
2019-02-11T06:02:09.534Z,130.67
2019-02-11T06:04:36.392Z,131.00
2019-02-11T06:07:03.204Z,131.22
2019-02-11T06:09:29.976Z,131.75
2019-02-11T06:11:56.850Z,129.95
2019-02-11T06:14:23.644Z,131.37
2019-02-11T06:16:50.499Z,131.80
2019-02-11T06:19:17.392Z,131.20
2019-02-11T06:21:44.474Z,131.75
2019-02-11T06:24:11.530Z,131.37
2019-02-11T06:26:38.373Z,130.80
2019-02-11T06:29:05.260Z,131.52
2019-02-11T06:31:31.998Z,132.30
2019-02-11T06:33:58.764Z,132.12
2019-02-11T06:36:25.718Z,132.37
2019-02-11T06:38:52.701Z,132.37
2019-02-11T06:41:19.439Z,133.45
2019-02-11T06:43:46.226Z,133.47
2019-02-11T06:46:13.079Z,133.20
2019-02-11T06:48:39.955Z,133.37
2019-02-11T06:51:06.947Z,134.07
2019-02-11T06:53:33.739Z,134.12
2019-02-11T06:56:00.479Z,133.82
2019-02-11T06:58:27.390Z,134.60
2019-02-11T07:00:55.350Z,134.27
2019-02-11T07:03:22.324Z,134.10
2019-02-11T07:05:49.228Z,133.57
2019-02-11T07:08:16.101Z,134.70
2019-02-11T07:10:42.977Z,134.00
2019-02-11T07:13:09.924Z,133.52
2019-02-11T07:15:36.968Z,134.72
2019-02-11T07:18:03.933Z,134.75
2019-02-11T07:20:30.928Z,135.65
2019-02-11T07:22:57.906Z,134.03
2019-02-11T07:25:24.796Z,134.07
2019-02-11T07:27:51.755Z,134.12
2019-02-11T07:30:18.620Z,135.30
2019-02-11T07:32:45.463Z,134.30
2019-02-11T07:35:12.362Z,135.40
2019-02-11T07:37:39.224Z,135.63
2019-02-11T07:40:07.091Z,135.72
2019-02-11T07:42:39.022Z,133.93
2019-02-11T07:45:17.731Z,134.50
2019-02-11T07:47:44.720Z,134.72
2019-02-11T07:50:11.678Z,134.20
2019-02-11T07:52:38.730Z,133.55
2019-02-11T07:55:07.163Z,133.90
2019-02-11T07:57:35.292Z,133.37
2019-02-11T08:00:02.312Z,134.72
2019-02-11T08:02:29.376Z,133.50
2019-02-11T08:04:56.207Z,132.25
2019-02-11T08:07:23.055Z,134.22
2019-02-11T08:09:51.311Z,136.90
2019-02-11T08:12:18.172Z,135.15
2019-02-11T08:14:45.124Z,136.65
2019-02-11T08:17:12.031Z,138.65
2019-02-11T08:19:40.108Z,134.47
2019-02-11T08:22:06.977Z,133.60
2019-02-11T08:24:33.856Z,134.65
2019-02-11T08:27:00.725Z,133.78
2019-02-11T08:29:27.730Z,133.97
2019-02-11T08:31:54.668Z,136.88
2019-02-11T08:34:21.712Z,136.05
2019-02-11T08:36:48.577Z,135.68
2019-02-11T08:39:15.497Z,135.90
2019-02-11T08:41:42.452Z,134.52
2019-02-11T08:44:09.427Z,133.85
2019-02-11T08:46:36.327Z,133.70
2019-02-11T08:49:03.285Z,134.70
2019-02-11T08:51:30.264Z,134.18
2019-02-11T08:53:57.188Z,133.85
2019-02-11T08:56:24.163Z,135.35
2019-02-11T08:58:51.014Z,134.70
2019-02-11T09:01:18.062Z,133.85
2019-02-11T09:03:46.048Z,134.80
2019-02-11T09:06:13.004Z,134.40
2019-02-11T09:08:40.026Z,134.80
2019-02-11T09:11:07.007Z,134.20
2019-02-11T09:13:33.860Z,133.35
2019-02-11T09:16:00.879Z,135.25
2019-02-11T09:18:28.618Z,135.43
2019-02-11T09:20:55.478Z,135.52
2019-02-11T09:23:22.431Z,135.00
2019-02-11T09:25:49.267Z,134.57
2019-02-11T09:28:16.128Z,134.27
2019-02-11T09:30:43.189Z,134.78
2019-02-11T09:33:10.070Z,134.00
2019-02-11T09:35:36.934Z,135.45
2019-02-11T09:38:03.926Z,134.37
2019-02-11T09:40:30.780Z,134.12
2019-02-11T09:42:57.642Z,135.60
2019-02-11T09:45:24.671Z,134.97
2019-02-11T09:47:51.682Z,134.15
2019-02-11T09:50:48.873Z,134.00
2019-02-11T09:53:15.765Z,134.07
2019-02-11T09:55:42.773Z,133.80
2019-02-11T09:58:09.712Z,133.63
2019-02-11T10:00:36.560Z,132.45
2019-02-11T10:03:04.645Z,132.82
2019-02-11T10:05:56.985Z,133.93
2019-02-11T10:08:38.116Z,132.10
2019-02-11T10:11:05.967Z,134.32
2019-02-11T10:13:32.982Z,134.27
2019-02-11T10:15:59.826Z,134.07
2019-02-11T10:18:26.830Z,134.37
2019-02-11T10:20:53.673Z,134.65
2019-02-11T10:23:20.525Z,137.15
2019-02-11T10:25:47.444Z,138.68
2019-02-11T10:28:14.402Z,135.28
2019-02-11T10:30:41.366Z,135.03
2019-02-11T10:33:08.673Z,135.78
2019-02-11T10:35:42.103Z,134.65
2019-02-11T10:38:05.171Z,134.05
2019-02-11T10:40:32.099Z,133.60
2019-02-11T10:42:58.896Z,133.32
2019-02-11T10:45:25.778Z,135.05
2019-02-11T10:47:52.668Z,136.30
2019-02-11T10:50:19.434Z,135.55
2019-02-11T10:52:46.391Z,134.15
2019-02-11T10:55:14.120Z,134.80
2019-02-11T10:57:41.512Z,136.32
2019-02-11T11:00:13.832Z,135.10
2019-02-11T11:02:40.924Z,135.45
2019-02-11T11:05:08.954Z,137.10
2019-02-11T11:07:37.982Z,136.68
2019-02-11T11:10:08.128Z,134.80
2019-02-11T11:12:35.255Z,133.72
2019-02-11T11:15:02.432Z,134.80
2019-02-11T11:17:30.293Z,134.82
2019-02-11T11:19:58.466Z,134.05
2019-02-11T11:22:25.396Z,135.12
2019-02-11T11:24:52.262Z,135.68
2019-02-11T11:27:19.186Z,136.03
2019-02-11T11:29:46.059Z,132.87
2019-02-11T11:32:12.904Z,133.05
2019-02-11T11:34:39.865Z,133.85
2019-02-11T11:37:07.010Z,135.00
2019-02-11T11:39:34.019Z,136.45
2019-02-11T11:42:01.043Z,135.12
2019-02-11T11:44:28.101Z,135.60
2019-02-11T11:46:55.188Z,135.12
2019-02-11T11:49:22.240Z,136.80
2019-02-11T11:51:49.329Z,135.40
2019-02-11T11:54:16.209Z,134.60
2019-02-11T11:56:45.523Z,135.88
2019-02-11T11:59:12.574Z,136.37
2019-02-11T12:01:39.433Z,136.60
2019-02-11T12:04:06.916Z,153.27
2019-02-11T12:06:33.986Z,149.50
2019-02-11T12:09:00.747Z,141.32
2019-02-11T12:11:27.762Z,136.15
2019-02-11T12:13:54.615Z,134.40
2019-02-11T12:16:21.577Z,135.07
2019-02-11T12:18:48.449Z,135.43
2019-02-11T12:21:27.766Z,136.43
2019-02-11T12:23:54.732Z,135.65
2019-02-11T12:26:22.714Z,138.57
2019-02-11T12:28:49.696Z,135.75
2019-02-11T12:31:16.656Z,139.05
2019-02-11T12:33:43.525Z,136.90
2019-02-11T12:36:10.629Z,135.43
2019-02-11T12:38:37.580Z,139.18
2019-02-11T12:41:04.557Z,137.68
2019-02-11T12:43:31.618Z,135.85
2019-02-11T12:46:00.441Z,135.40
2019-02-11T12:48:27.266Z,134.97
2019-02-11T12:50:54.167Z,134.55
2019-02-11T12:53:21.051Z,135.85
2019-02-11T12:55:48.023Z,137.32
2019-02-11T12:58:14.812Z,137.75
2019-02-11T13:00:41.620Z,137.22
2019-02-11T13:03:08.508Z,137.30
2019-02-11T13:05:44.824Z,136.62
2019-02-11T13:08:04.028Z,137.80
2019-02-11T13:10:37.289Z,137.28
2019-02-11T13:13:07.269Z,135.97
2019-02-11T13:15:57.676Z,136.37
2019-02-11T13:18:03.414Z,135.68
2019-02-11T13:20:30.484Z,136.25
2019-02-11T13:22:57.333Z,136.70
2019-02-11T13:25:24.128Z,135.15
2019-02-11T13:27:50.920Z,135.22
2019-02-11T13:30:18.750Z,135.03
2019-02-11T13:32:45.636Z,135.48
2019-02-11T13:35:12.510Z,135.35
2019-02-11T13:37:39.374Z,135.03
2019-02-11T13:40:06.790Z,133.30
2019-02-11T13:42:33.742Z,135.97
2019-02-11T13:45:00.640Z,135.78
2019-02-11T13:47:27.546Z,135.30
2019-02-11T13:49:54.518Z,134.85
2019-02-11T13:52:21.379Z,136.37
2019-02-11T13:54:48.351Z,135.40
2019-02-11T13:57:15.311Z,134.80
2019-02-11T13:59:42.180Z,135.97
2019-02-11T14:02:09.064Z,136.10
2019-02-11T14:04:36.071Z,136.90
2019-02-11T14:07:02.926Z,135.52
2019-02-11T14:09:31.195Z,138.82
2019-02-11T14:11:58.073Z,138.18
2019-02-11T14:14:27.811Z,138.77
2019-02-11T14:16:54.718Z,137.18
2019-02-11T14:19:21.646Z,136.82
2019-02-11T14:21:48.614Z,138.18
2019-02-11T14:24:15.594Z,136.77
2019-02-11T14:26:42.615Z,135.85
2019-02-11T14:29:09.506Z,135.78
2019-02-11T14:31:36.936Z,135.95
2019-02-11T14:34:04.047Z,136.25
2019-02-11T14:36:31.514Z,135.63
2019-02-11T14:38:58.943Z,136.47
2019-02-11T14:41:26.423Z,134.80
2019-02-11T14:43:54.949Z,134.22
2019-02-11T14:46:22.351Z,136.10
2019-02-11T14:48:49.603Z,134.47
2019-02-11T14:51:17.028Z,134.20
2019-02-11T14:53:44.557Z,135.30
2019-02-11T14:56:12.064Z,134.35
2019-02-11T14:58:39.076Z,135.72
2019-02-11T15:01:06.132Z,136.60
2019-02-11T15:03:33.212Z,136.77
2019-02-11T15:06:00.081Z,137.22
2019-02-11T15:08:27.116Z,135.55
2019-02-11T15:10:55.890Z,134.87
2019-02-11T15:13:22.899Z,137.10
2019-02-11T15:15:49.672Z,135.05
2019-02-11T15:18:16.541Z,134.22
2019-02-11T15:20:43.540Z,138.45
2019-02-11T15:23:10.475Z,135.68
2019-02-11T15:25:37.428Z,135.70
2019-02-11T15:28:04.455Z,135.50
2019-02-11T15:30:31.280Z,137.50
2019-02-11T15:33:04.272Z,135.75
2019-02-11T15:35:38.316Z,137.95
2019-02-11T15:38:05.795Z,136.03
2019-02-11T15:40:33.653Z,137.43
2019-02-11T15:43:00.562Z,134.95
2019-02-11T15:45:27.404Z,133.40
2019-02-11T15:47:54.422Z,133.85
2019-02-11T15:50:22.436Z,135.65
2019-02-11T15:52:49.300Z,135.40
2019-02-11T15:55:18.059Z,135.52
2019-02-11T15:57:45.072Z,135.28
2019-02-11T16:00:15.095Z,135.00
2019-02-11T16:02:42.038Z,134.63
2019-02-11T16:05:16.067Z,134.52
2019-02-11T16:07:37.883Z,134.15
2019-02-11T16:10:05.858Z,136.30
2019-02-11T16:12:32.960Z,135.18
2019-02-11T16:14:59.836Z,137.62
2019-02-11T16:17:28.177Z,141.85
2019-02-11T16:19:55.061Z,137.30
2019-02-11T16:22:22.019Z,137.25
2019-02-11T16:24:48.769Z,135.97
2019-02-11T16:27:15.671Z,136.43
2019-02-11T16:29:42.634Z,134.67
2019-02-11T16:32:09.429Z,135.12
2019-02-11T16:34:36.777Z,135.30
2019-02-11T16:37:03.518Z,135.15
2019-02-11T16:39:30.374Z,135.10
2019-02-11T16:41:57.284Z,135.32
2019-02-11T16:44:24.146Z,135.78
2019-02-11T16:46:50.924Z,133.95
2019-02-11T16:49:17.838Z,133.97
2019-02-11T16:51:45.695Z,135.30
2019-02-11T16:54:12.541Z,133.32
2019-02-11T16:56:39.327Z,134.03
2019-02-11T16:59:08.122Z,133.72
2019-02-11T17:01:35.074Z,134.78
2019-02-11T17:04:02.046Z,135.25
2019-02-11T17:06:28.902Z,138.75
2019-02-11T17:08:55.772Z,133.93
2019-02-11T17:11:22.788Z,132.95
2019-02-11T17:13:49.563Z,134.97
2019-02-11T17:16:20.205Z,135.22
2019-02-11T17:18:47.153Z,135.80
2019-02-11T17:21:14.246Z,134.03
2019-02-11T17:23:41.130Z,134.95
2019-02-11T17:26:08.241Z,136.77
2019-02-11T17:28:35.095Z,135.57
2019-02-11T17:31:03.340Z,134.85
2019-02-11T17:33:30.179Z,136.95
2019-02-11T17:35:57.208Z,137.28
2019-02-11T17:38:24.083Z,137.68
2019-02-11T17:40:51.051Z,136.52
2019-02-11T17:43:18.039Z,135.63
2019-02-11T17:45:44.999Z,135.43
2019-02-11T17:48:12.090Z,136.88
2019-02-11T17:50:39.257Z,135.90
2019-02-11T17:53:07.198Z,135.05
2019-02-11T17:55:34.407Z,136.43
2019-02-11T17:58:01.262Z,134.95
2019-02-11T18:00:38.754Z,135.85
2019-02-11T18:03:05.781Z,137.62
2019-02-11T18:05:32.645Z,137.15
2019-02-11T18:08:00.661Z,138.00
2019-02-11T18:10:27.624Z,137.37
2019-02-11T18:12:54.578Z,138.25
2019-02-11T18:15:21.667Z,138.43
2019-02-11T18:17:48.647Z,137.37
2019-02-11T18:20:15.514Z,137.55
2019-02-11T18:22:44.192Z,137.43
2019-02-11T18:25:16.749Z,137.52
2019-02-11T18:27:49.377Z,138.85
2019-02-11T18:30:16.968Z,137.75
2019-02-11T18:32:43.828Z,136.47
2019-02-11T18:35:11.238Z,136.57
2019-02-11T18:37:38.187Z,135.75
2019-02-11T18:40:07.151Z,135.90
2019-02-11T18:42:33.953Z,137.43
2019-02-11T18:45:01.015Z,137.05
2019-02-11T18:47:28.036Z,136.45
2019-02-11T18:49:54.880Z,136.43
2019-02-11T18:52:21.827Z,136.30
2019-02-11T18:54:48.655Z,136.92
2019-02-11T18:57:15.647Z,137.20
2019-02-11T18:59:42.503Z,135.32
2019-02-11T19:02:09.255Z,136.77
2019-02-11T19:04:36.117Z,135.90
2019-02-11T19:07:03.054Z,135.90
2019-02-11T19:09:29.892Z,136.28
2019-02-11T19:11:56.805Z,135.63
2019-02-11T19:14:23.547Z,137.32
2019-02-11T19:16:50.517Z,135.63
2019-02-11T19:19:17.432Z,136.00
2019-02-11T19:21:48.419Z,137.90
2019-02-11T19:24:15.809Z,136.52
2019-02-11T19:26:42.785Z,137.20
2019-02-11T19:29:09.749Z,137.70
2019-02-11T19:31:40.683Z,136.52
2019-02-11T19:34:07.658Z,137.68
2019-02-11T19:36:34.554Z,139.03
2019-02-11T19:39:01.399Z,139.62
2019-02-11T19:41:30.220Z,138.75
2019-02-11T19:43:58.887Z,138.22
2019-02-11T19:46:25.650Z,141.25
2019-02-11T19:48:52.628Z,140.97
2019-02-11T19:51:19.478Z,137.75
2019-02-11T19:53:46.345Z,137.22
2019-02-11T19:56:13.224Z,137.50
2019-02-11T19:58:40.189Z,138.15
2019-02-11T20:01:07.116Z,137.07
2019-02-11T20:03:34.122Z,136.43
2019-02-11T20:06:00.977Z,137.97
2019-02-11T20:08:27.970Z,136.90
2019-02-11T20:10:54.911Z,137.65
2019-02-11T20:13:22.072Z,137.15
2019-02-11T20:15:48.935Z,138.18
2019-02-11T20:18:15.900Z,138.03
2019-02-11T20:20:54.523Z,136.47
2019-02-11T20:23:21.408Z,137.62
2019-02-11T20:25:48.360Z,138.30
2019-02-11T20:28:15.335Z,137.30
2019-02-11T20:30:42.390Z,136.20
2019-02-11T20:33:09.219Z,135.72
2019-02-11T20:35:37.382Z,136.07
2019-02-11T20:38:04.411Z,137.37
2019-02-11T20:40:31.364Z,136.40
2019-02-11T20:42:58.340Z,135.05
2019-02-11T20:45:25.932Z,135.65
2019-02-11T20:47:52.796Z,136.68
2019-02-11T20:50:19.636Z,136.50
2019-02-11T20:52:46.505Z,135.82
2019-02-11T20:55:13.358Z,136.35
2019-02-11T20:57:40.247Z,136.07
2019-02-11T21:00:10.905Z,136.52
2019-02-11T21:02:37.773Z,148.15
2019-02-11T21:05:05.458Z,147.02
2019-02-11T21:07:32.257Z,137.18
2019-02-11T21:09:59.200Z,137.80
2019-02-11T21:12:26.068Z,141.95
2019-02-11T21:14:52.953Z,138.85
2019-02-11T21:17:19.910Z,136.40
2019-02-11T21:19:46.956Z,134.93
2019-02-11T21:22:13.967Z,135.55
2019-02-11T21:24:40.714Z,138.20
2019-02-11T21:27:07.968Z,135.97
2019-02-11T21:29:34.875Z,135.55
2019-02-11T21:32:03.570Z,138.47
2019-02-11T21:34:30.612Z,136.40
2019-02-11T21:36:57.514Z,137.97
2019-02-11T21:39:24.486Z,139.82
2019-02-11T21:41:51.513Z,137.10
2019-02-11T21:44:19.780Z,135.60
2019-02-11T21:46:46.931Z,136.82
2019-02-11T21:49:14.003Z,134.57
2019-02-11T21:51:40.866Z,136.15
2019-02-11T21:54:07.820Z,135.37
2019-02-11T21:56:34.669Z,135.45
2019-02-11T21:59:01.525Z,133.87
2019-02-11T22:01:28.380Z,132.35
2019-02-11T22:03:55.234Z,132.20
2019-02-11T22:06:22.338Z,133.15
2019-02-11T22:08:49.184Z,132.12
2019-02-11T22:11:15.916Z,133.97
2019-02-11T22:13:42.816Z,133.15
2019-02-11T22:16:09.695Z,132.45
2019-02-11T22:18:36.577Z,132.60
2019-02-11T22:21:03.353Z,133.82
2019-02-11T22:23:30.312Z,133.40
2019-02-11T22:25:57.203Z,133.27
2019-02-11T22:28:24.080Z,132.57
2019-02-11T22:30:52.057Z,133.35
2019-02-11T22:33:19.016Z,132.35
2019-02-11T22:35:45.897Z,132.55
2019-02-11T22:38:12.741Z,132.97
2019-02-11T22:40:39.700Z,132.82
2019-02-11T22:43:06.584Z,133.60
2019-02-11T22:45:33.540Z,132.87
2019-02-11T22:48:00.284Z,132.93
2019-02-11T22:50:27.208Z,134.32
2019-02-11T22:52:54.061Z,133.35
2019-02-11T22:55:20.910Z,134.43
2019-02-11T22:57:47.922Z,134.10
2019-02-11T23:00:33.698Z,133.40
2019-02-11T23:03:01.176Z,132.12
2019-02-11T23:05:27.960Z,131.80
2019-02-11T23:07:54.699Z,130.97
2019-02-11T23:10:21.574Z,131.00
2019-02-11T23:12:48.455Z,131.45
2019-02-11T23:15:15.195Z,132.60
2019-02-11T23:17:42.169Z,132.65
2019-02-11T23:20:09.175Z,133.97
2019-02-11T23:22:36.355Z,131.47
2019-02-11T23:25:03.156Z,132.95
2019-02-11T23:27:29.981Z,131.57
2019-02-11T23:29:56.690Z,131.72
2019-02-11T23:32:23.665Z,132.65
2019-02-11T23:34:50.621Z,131.93
2019-02-11T23:37:17.372Z,132.55
2019-02-11T23:39:44.393Z,132.90
2019-02-11T23:42:11.696Z,131.22
2019-02-11T23:44:38.657Z,131.12
2019-02-11T23:47:05.519Z,132.47
2019-02-11T23:49:32.267Z,133.72
2019-02-11T23:51:59.010Z,131.70
2019-02-11T23:54:25.936Z,133.78
2019-02-11T23:56:52.989Z,132.03
2019-02-11T23:59:19.844Z,132.30
